Decoded Metar for LEAS (ASTURIAS in SPAIN) (IATA:OVD) | Meteo·Mobile Aviation Weather
aviador You're here:

LEAS Decoded Metar

ASTURIAS in SPAIN
Report Time2018-11-21 17:30:00
UTC Time2018-11-21 17:46:29
Flight Rules vfr VFR
WindVRB at 02 kt
Visibility9999 m
Phenomena:N/A
Clouds:Few 070 Hf
Scattered 085 Hf
Expected CloudBase > 800 ft AGL from Temp-Dew spread
CeilingNone
Temp10°C (ISA -4)
Dew Point08°C (88% RH)
AAT8.8°C
QNH1007 hPa
Density Alt299 ft
Elevation440 ft
Report Wrong Elevation
Raw Report
METAR LEAS 211730Z VRB02KT 9999 FEW070 SCT085 10/08 Q1007 NOSIG=

Extra information for LEAS:More info

Metar Taf Metar & Taf Last 4 Metars F.Rules Stats Wind Profile Meteogram Temp Stats Airport Information Weather charts Add Link Nearby VenuesMetar ALERT Operation Metar Decoded Social comments